Hillsboro, New Hampshire
Current Conditions -  °F | °C
As of 7:51 PM on Friday 24 Oct 2014 (Local Time) from KCON Reporting Station
Broken Clouds Broken Clouds  
Wind Chill: 42°   Ceiling: 2100
Heat Index: 46°   Visibility: 10mi
Dew Point: 40°   Wind: 8mph
Humidity: 79%   Direction: 310°NW
Pressure: 29.74"   Gusts: NA
Location:  43.12°N, 71.9°W
Report Text: KCON 242351Z AUTO 31007KT 10SM BKN021 BKN090 08/04 A2974 RMK AO2 SLP072 T00780044 10100 20078 51013
Loading
Personal Weather Stations






























Interactive Weather Map New forecast layout! Learn more

10-Day Weather Forecast

Advertisements
Track Severe Weather on mobile